Time;durP1;ratioP1;P1;durP2;ratioP2;P2;SDS_P1;SDS_P2;PMS_P1;PMS_P2;Temp;Humidity;BMP_temperature;BMP_pressure;BME280_temperature;BME280_humidity;BME280_pressure;Samples;Min_cycle;Max_cycle;Signal;HPM_P1;HPM_P2
2023/03/24 00:00:01;;;;;;;37.28;24.27;;;;;;;;;;2039354;29;19934;-88
2023/03/24 00:01:04;;;;;;;37.83;24.33;;;;;;;;;;2039227;29;20066;-89
2023/03/24 00:02:05;;;;;;;31.77;22.23;;;;;;;;;;2031542;29;20027;-88
2023/03/24 00:03:06;;;;;;;35.30;22.30;;;;;;;;;;2039541;29;20055;-89
2023/03/24 00:04:06;;;;;;;;;;;;;;;;;;2048493;29;20407;-88
2023/03/24 00:05:09;;;;;;;31.80;21.93;;;;;;;;;;2048062;28;19918;-90
2023/03/24 00:06:12;;;;;;;36.47;22.45;;;;;;;;;;2039380;29;20230;-89
2023/03/24 00:07:14;;;;;;;31.92;21.27;;;;;;;;;;2031709;29;20024;-89
2023/03/24 00:08:15;;;;;;;30.52;19.85;;;;;;;;;;2039397;29;20188;-90
2023/03/24 00:09:16;;;;;;;32.55;19.55;;;;;;;;;;2048013;28;20031;-88
2023/03/24 00:10:19;;;;;;;;;;;;;;;;;;2048470;28;20178;-89
2023/03/24 00:11:19;;;;;;;35.72;20.58;;;;;;;;;;2039196;29;19970;-90
2023/03/24 00:12:20;;;;;;;;;;;;;;;;;;2031724;29;20174;-89
2023/03/24 00:13:21;;;;;;;30.23;19.97;;;;;;;;;;2031271;29;19941;-90
2023/03/24 00:14:22;;;;;;;;;;;;;;;;;;2039702;29;20141;-88
2023/03/24 00:15:23;;;;;;;29.30;20.98;;;;;;;;;;2039109;29;19914;-90
2023/03/24 00:16:27;;;;;;;35.00;21.35;;;;;;;;;;2044245;29;20606;-88
2023/03/24 00:17:28;;;;;;;31.38;21.35;;;;;;;;;;2050891;28;20073;-87
2023/03/24 00:18:29;;;;;;;34.10;22.35;;;;;;;;;;2033367;29;20020;-88
2023/03/24 00:19:29;;;;;;;29.92;20.52;;;;;;;;;;2031600;29;20032;-89
2023/03/24 00:20:31;;;;;;;;;;;;;;;;;;2039651;29;20456;-88
2023/03/24 00:21:32;;;;;;;34.72;22.08;;;;;;;;;;2047904;28;19953;-88
2023/03/24 00:22:32;;;;;;;;;;;;;;;;;;2048262;29;20027;-89
2023/03/24 00:23:34;;;;;;;38.13;22.13;;;;;;;;;;2047695;28;19957;-90
2023/03/24 00:24:34;;;;;;;36.90;22.50;;;;;;;;;;2048077;28;20053;-89
2023/03/24 00:25:35;;;;;;;;;;;;;;;;;;2039517;29;20491;-89
2023/03/24 00:26:37;;;;;;;37.50;23.37;;;;;;;;;;2039174;29;20425;-90
2023/03/24 00:27:37;;;;;;;34.22;22.65;;;;;;;;;;2039013;29;20036;-89
2023/03/24 00:28:38;;;;;;;;;;;;;;;;;;2039834;29;20055;-90
2023/03/24 00:29:40;;;;;;;33.97;21.47;;;;;;;;;;2039002;29;19986;-89
2023/03/24 00:30:40;;;;;;;32.63;21.73;;;;;;;;;;2039858;29;20031;-88
2023/03/24 00:31:42;;;;;;;;;;;;;;;;;;2051235;29;20049;-89
2023/03/24 00:32:43;;;;;;;34.58;20.15;;;;;;;;;;2041310;29;19922;-90
2023/03/24 00:33:49;;;;;;;36.33;20.23;;;;;;;;;;2031533;29;20531;-89
2023/03/24 00:34:51;;;;;;;31.90;21.08;;;;;;;;;;2039938;29;20408;-89
2023/03/24 00:35:52;;;;;;;31.27;20.35;;;;;;;;;;2039441;29;20039;-89
2023/03/24 00:36:53;;;;;;;29.95;19.00;;;;;;;;;;2031204;29;20127;-89
2023/03/24 00:37:53;;;;;;;;;;;;;;;;;;2031755;29;20499;-89
2023/03/24 00:38:56;;;;;;;33.88;20.67;;;;;;;;;;2039715;29;20009;-90
2023/03/24 00:39:58;;;;;;;24.92;17.80;;;;;;;;;;2047280;29;20024;-88
2023/03/24 00:41:00;;;;;;;25.80;18.17;;;;;;;;;;2047744;28;20513;-89
2023/03/24 00:42:00;;;;;;;31.83;18.60;;;;;;;;;;2038909;29;20034;-88
2023/03/24 00:43:00;;;;;;;;;;;;;;;;;;2031476;29;20055;-89
2023/03/24 00:44:05;;;;;;;30.23;18.63;;;;;;;;;;2041227;29;19947;-95
2023/03/24 00:45:10;;;;;;;29.10;19.45;;;;;;;;;;2041898;29;20702;-95
2023/03/24 00:46:26;;;;;;;25.90;17.58;;;;;;;;;;2041572;29;20038;-89
2023/03/24 00:47:26;;;;;;;27.05;18.33;;;;;;;;;;2047028;29;20782;-89
2023/03/24 00:48:27;;;;;;;;;;;;;;;;;;2048175;29;20090;-88
2023/03/24 00:49:41;;;;;;;24.70;17.80;;;;;;;;;;1698327;29;10001446;-90
2023/03/24 00:50:47;;;;;;;27.33;19.10;;;;;;;;;;2032719;29;20035;-89
2023/03/24 00:51:47;;;;;;;26.88;17.88;;;;;;;;;;2031527;29;20432;-90
2023/03/24 00:52:47;;;;;;;;;;;;;;;;;;2039331;29;20099;-90
2023/03/24 00:53:48;;;;;;;27.98;18.35;;;;;;;;;;2046795;29;19910;-88
2023/03/24 00:54:50;;;;;;;;;;;;;;;;;;2039370;29;20063;-88
2023/03/24 00:55:51;;;;;;;27.75;18.33;;;;;;;;;;2039252;29;20014;-89
2023/03/24 00:56:54;;;;;;;;;;;;;;;;;;2039267;29;20031;-89
2023/03/24 00:57:55;;;;;;;25.92;16.98;;;;;;;;;;2041985;28;19907;-91
2023/03/24 00:58:56;;;;;;;;;;;;;;;;;;2048311;28;20050;-89
2023/03/24 00:59:57;;;;;;;29.08;18.77;;;;;;;;;;2047680;28;19921;-89
2023/03/24 01:00:57;;;;;;;30.80;20.10;;;;;;;;;;2047302;29;20031;-92
2023/03/24 01:01:57;;;;;;;;;;;;;;;;;;2047942;29;20027;-90
2023/03/24 01:02:58;;;;;;;27.80;18.10;;;;;;;;;;2047655;28;19985;-90
2023/03/24 01:03:59;;;;;;;;;;;;;;;;;;2047920;28;20031;-89
2023/03/24 01:05:01;;;;;;;26.37;17.63;;;;;;;;;;2038862;29;19911;-90
2023/03/24 01:06:02;;;;;;;29.77;18.67;;;;;;;;;;2039211;29;20051;-90
2023/03/24 01:07:02;;;;;;;27.35;18.70;;;;;;;;;;2039156;29;20075;-90
2023/03/24 01:08:03;;;;;;;;;;;;;;;;;;2039225;29;20358;-89
2023/03/24 01:09:05;;;;;;;26.20;16.33;;;;;;;;;;2039626;29;20461;-90
2023/03/24 01:10:07;;;;;;;26.55;18.00;;;;;;;;;;2038436;29;20101;-88
2023/03/24 01:11:09;;;;;;;26.38;16.75;;;;;;;;;;2049885;28;20019;-88
2023/03/24 01:12:10;;;;;;;26.08;17.13;;;;;;;;;;2039145;29;20031;-89
2023/03/24 01:13:10;;;;;;;;;;;;;;;;;;2047121;29;20047;-88
2023/03/24 01:14:11;;;;;;;25.43;17.30;;;;;;;;;;2052205;29;19920;-90
2023/03/24 01:15:13;;;;;;;;;;;;;;;;;;2048198;29;20008;-89
2023/03/24 01:16:14;;;;;;;24.17;16.45;;;;;;;;;;2047887;29;19923;-91
2023/03/24 01:17:15;;;;;;;27.67;18.05;;;;;;;;;;2045411;29;20055;-91
2023/03/24 01:18:15;;;;;;;;;;;;;;;;;;2041177;29;20539;-89
2023/03/24 01:19:16;;;;;;;26.50;16.60;;;;;;;;;;2047781;29;20381;-90
2023/03/24 01:20:16;;;;;;;;;;;;;;;;;;2039125;29;20027;-90
2023/03/24 01:21:17;;;;;;;26.93;16.50;;;;;;;;;;2031083;29;20010;-90
2023/03/24 01:22:19;;;;;;;;;;;;;;;;;;2039226;29;20133;-89
2023/03/24 01:23:22;;;;;;;25.17;17.13;;;;;;;;;;2038748;29;19922;-90
2023/03/24 01:24:24;;;;;;;21.98;17.08;;;;;;;;;;2029059;29;20044;-91
2023/03/24 01:25:26;;;;;;;28.55;17.48;;;;;;;;;;2038706;29;20170;-90
2023/03/24 01:26:27;;;;;;;29.17;18.98;;;;;;;;;;2031140;29;20068;-90
2023/03/24 01:27:27;;;;;;;;;;;;;;;;;;2039305;29;20078;-90
2023/03/24 01:28:27;;;;;;;28.23;17.40;;;;;;;;;;2047401;28;19925;-90
2023/03/24 01:29:28;;;;;;;;;;;;;;;;;;2047850;29;20117;-89
2023/03/24 01:30:29;;;;;;;24.98;16.30;;;;;;;;;;2038901;29;20358;-89
2023/03/24 01:31:30;;;;;;;25.40;16.92;;;;;;;;;;2039156;29;20494;-89
2023/03/24 01:32:30;;;;;;;;;;;;;;;;;;2039291;29;20385;-89
2023/03/24 01:33:31;;;;;;;23.60;16.53;;;;;;;;;;2039180;29;19911;-90
2023/03/24 01:34:32;;;;;;;;;;;;;;;;;;2045431;29;20041;-89
2023/03/24 01:35:32;;;;;;;23.83;14.80;;;;;;;;;;2047360;29;19914;-90
2023/03/24 01:36:33;;;;;;;22.73;15.50;;;;;;;;;;2044549;29;20038;-90
2023/03/24 01:37:33;;;;;;;;;;;;;;;;;;2032489;29;20136;-88
2023/03/24 01:38:34;;;;;;;20.87;14.00;;;;;;;;;;2030928;29;20370;-90
2023/03/24 01:39:34;;;;;;;20.52;14.88;;;;;;;;;;2038924;29;20134;-89
2023/03/24 01:40:39;;;;;;;25.83;15.77;;;;;;;;;;2038257;29;20051;-91
2023/03/24 01:41:40;;;;;;;25.90;16.42;;;;;;;;;;2031366;29;20051;-89
2023/03/24 01:42:40;;;;;;;;;;;;;;;;;;2038912;29;20028;-90
2023/03/24 01:43:42;;;;;;;24.87;16.33;;;;;;;;;;2047121;28;19937;-90
2023/03/24 01:44:46;;;;;;;25.98;18.50;;;;;;;;;;2038298;29;20024;-90
2023/03/24 01:45:50;;;;;;;24.77;17.83;;;;;;;;;;2030787;29;20028;-89
2023/03/24 01:46:50;;;;;;;27.15;19.05;;;;;;;;;;2031472;29;20040;-89
2023/03/24 01:47:50;;;;;;;;;;;;;;;;;;2032451;29;20706;-90
2023/03/24 01:49:11;;;;;;;25.40;17.27;;;;;;;;;;2040996;29;20417;-90
2023/03/24 01:50:13;;;;;;;27.70;18.77;;;;;;;;;;2041279;29;20509;-87
2023/03/24 01:51:22;;;;;;;27.60;19.25;;;;;;;;;;2044743;29;20188;-88
2023/03/24 01:52:31;;;;;;;28.35;19.52;;;;;;;;;;2051758;29;20477;-88
2023/03/24 01:53:34;;;;;;;28.73;19.33;;;;;;;;;;2043674;29;20031;-87
2023/03/24 01:54:43;;;;;;;28.98;20.23;;;;;;;;;;2039835;29;20034;-89
2023/03/24 01:55:46;;;;;;;26.67;20.23;;;;;;;;;;2038273;29;20024;-89
2023/03/24 01:56:52;;;;;;;29.58;20.60;;;;;;;;;;2038786;29;20031;-90
2023/03/24 01:57:57;;;;;;;28.58;19.90;;;;;;;;;;2038415;29;20515;-90
2023/03/24 01:59:05;;;;;;;27.88;20.45;;;;;;;;;;2030789;29;20119;-90
2023/03/24 02:00:09;;;;;;;30.63;19.48;;;;;;;;;;2031337;29;20131;-90
2023/03/24 02:01:11;;;;;;;31.33;21.55;;;;;;;;;;2039008;29;20141;-90
2023/03/24 02:02:13;;;;;;;32.08;21.25;;;;;;;;;;2046918;28;20023;-90
2023/03/24 02:03:19;;;;;;;30.30;20.90;;;;;;;;;;2051637;28;20078;-90
2023/03/24 02:04:20;;;;;;;28.23;21.10;;;;;;;;;;2057851;28;20027;-88
2023/03/24 02:05:29;;;;;;;;;;;;;;;;;;1955233;28;10114734;-89
2023/03/24 02:06:32;;;;;;;27.88;18.33;;;;;;;;;;2038291;29;20569;-88
2023/03/24 02:07:42;;;;;;;28.77;21.05;;;;;;;;;;2030833;29;20027;-89
2023/03/24 02:08:57;;;;;;;28.70;20.33;;;;;;;;;;2039846;29;20028;-88
2023/03/24 02:10:00;;;;;;;28.25;19.23;;;;;;;;;;2038751;29;20099;-89
2023/03/24 02:11:02;;;;;;;26.02;20.55;;;;;;;;;;2038640;29;20099;-89
2023/03/24 02:12:03;;;;;;;27.30;20.45;;;;;;;;;;2047239;28;20110;-89
2023/03/24 02:13:03;;;;;;;;;;;;;;;;;;2038970;29;20035;-89
2023/03/24 02:14:06;;;;;;;24.10;17.30;;;;;;;;;;2030568;29;19919;-88
2023/03/24 02:15:07;;;;;;;27.45;18.45;;;;;;;;;;2030759;29;20032;-89
2023/03/24 02:16:30;;;;;;;28.10;20.33;;;;;;;;;;2038747;29;20420;-89
2023/03/24 02:17:33;;;;;;;28.38;19.33;;;;;;;;;;2038512;29;20012;-89
2023/03/24 02:18:54;;;;;;;25.60;19.77;;;;;;;;;;2030946;29;20507;-89
2023/03/24 02:19:57;;;;;;;26.65;18.83;;;;;;;;;;2033284;29;20063;-88
2023/03/24 02:21:25;;;;;;;25.27;18.92;;;;;;;;;;2038693;29;20087;-90
2023/03/24 02:22:44;;;;;;;25.17;18.65;;;;;;;;;;2038101;29;20034;-89
2023/03/24 02:24:00;;;;;;;25.60;19.80;;;;;;;;;;2032778;29;20060;-89
2023/03/24 02:25:46;;;;;;;25.17;18.33;;;;;;;;;;2040178;29;20036;-89
2023/03/24 02:27:13;;;;;;;25.48;16.85;;;;;;;;;;2046790;29;20031;-89
2023/03/24 02:28:16;;;;;;;24.48;18.65;;;;;;;;;;2047026;29;20011;-89
2023/03/24 02:29:34;;;;;;;24.48;18.05;;;;;;;;;;2038260;29;20025;-89
2023/03/24 02:30:53;;;;;;;26.33;19.63;;;;;;;;;;2032422;29;20028;-89
2023/03/24 02:32:32;;;;;;;23.02;17.55;;;;;;;;;;2040615;29;20028;-89
2023/03/24 02:34:05;;;;;;;25.45;17.23;;;;;;;;;;2008855;29;20137;-89
2023/03/24 02:35:38;;;;;;;23.42;17.23;;;;;;;;;;2034359;29;20111;-89
2023/03/24 02:37:03;;;;;;;26.10;18.52;;;;;;;;;;2042512;29;20525;-89
2023/03/24 02:38:09;;;;;;;24.30;18.17;;;;;;;;;;2038095;29;20038;-89
2023/03/24 02:39:29;;;;;;;24.67;18.42;;;;;;;;;;2038921;29;20031;-89
2023/03/24 02:40:32;;;;;;;23.50;16.65;;;;;;;;;;2038010;29;20052;-88
2023/03/24 02:41:50;;;;;;;23.40;19.10;;;;;;;;;;2038658;29;20055;-89
2023/03/24 02:43:06;;;;;;;23.67;17.08;;;;;;;;;;2038150;29;20034;-89
2023/03/24 02:44:27;;;;;;;22.08;16.85;;;;;;;;;;2032129;29;20031;-88
2023/03/24 02:45:38;;;;;;;21.77;15.85;;;;;;;;;;2032769;29;20032;-89
2023/03/24 02:46:52;;;;;;;26.30;17.55;;;;;;;;;;2039284;29;20038;-89
2023/03/24 02:48:11;;;;;;;22.42;17.35;;;;;;;;;;2038016;29;20122;-88
2023/03/24 02:49:32;;;;;;;25.77;18.75;;;;;;;;;;2032221;29;20294;-89
2023/03/24 02:50:52;;;;;;;25.33;16.67;;;;;;;;;;2032410;29;20032;-89
2023/03/24 02:52:10;;;;;;;24.60;18.23;;;;;;;;;;2032711;29;20173;-89
2023/03/24 02:53:21;;;;;;;26.27;17.92;;;;;;;;;;2040286;29;20036;-89
2023/03/24 02:54:33;;;;;;;25.10;18.02;;;;;;;;;;2037818;29;20554;-89
2023/03/24 02:55:55;;;;;;;23.73;17.92;;;;;;;;;;2039397;29;20034;-90
2023/03/24 02:57:11;;;;;;;25.08;18.73;;;;;;;;;;2043603;29;20031;-90
2023/03/24 02:58:21;;;;;;;27.88;18.92;;;;;;;;;;2042992;28;20039;-90
2023/03/24 02:59:36;;;;;;;25.92;19.10;;;;;;;;;;2039796;29;20046;-90
2023/03/24 03:00:48;;;;;;;24.95;18.98;;;;;;;;;;2047099;29;20033;-89
2023/03/24 03:01:57;;;;;;;28.08;19.75;;;;;;;;;;2038858;29;20076;-92
2023/03/24 03:03:13;;;;;;;28.60;20.38;;;;;;;;;;2032007;29;20028;-91
2023/03/24 03:04:18;;;;;;;26.65;18.27;;;;;;;;;;2039150;29;20103;-91
2023/03/24 03:05:28;;;;;;;27.13;18.95;;;;;;;;;;2030995;29;20097;-89
2023/03/24 03:06:35;;;;;;;25.92;18.05;;;;;;;;;;2039621;29;20047;-90
2023/03/24 03:07:39;;;;;;;24.08;17.63;;;;;;;;;;2047073;28;20498;-89
2023/03/24 03:08:41;;;;;;;26.73;19.38;;;;;;;;;;2043096;29;20144;-95
2023/03/24 03:09:54;;;;;;;24.27;18.05;;;;;;;;;;2035035;29;20511;-96
2023/03/24 03:11:02;;;;;;;29.33;18.45;;;;;;;;;;2037466;29;20045;-96
2023/03/24 03:12:04;;;;;;;24.98;18.27;;;;;;;;;;2039465;29;20660;-90
2023/03/24 03:13:12;;;;;;;26.30;18.25;;;;;;;;;;2038224;29;20044;-89
2023/03/24 03:14:18;;;;;;;30.20;19.25;;;;;;;;;;2031434;29;20012;-90
2023/03/24 03:15:23;;;;;;;30.65;21.05;;;;;;;;;;2038968;29;20028;-89
2023/03/24 03:16:44;;;;;;;28.05;18.80;;;;;;;;;;2047000;29;20103;-90
2023/03/24 03:17:49;;;;;;;30.15;18.35;;;;;;;;;;2038131;29;20402;-89
2023/03/24 03:20:13;;;;;;;28.05;19.45;;;;;;;;;;2151613;23;20544;-88
2023/03/24 03:21:17;;;;;;;26.20;18.77;;;;;;;;;;2038103;29;20526;-89
2023/03/24 03:22:22;;;;;;;29.02;18.92;;;;;;;;;;2030811;29;20043;-90
2023/03/24 03:23:30;;;;;;;27.17;18.85;;;;;;;;;;2038968;29;20030;-90
2023/03/24 03:24:40;;;;;;;28.75;19.33;;;;;;;;;;2046964;29;20030;-88
2023/03/24 03:25:49;;;;;;;26.98;18.38;;;;;;;;;;2046831;29;20027;-89
2023/03/24 03:26:49;;;;;;;27.85;19.77;;;;;;;;;;2037999;29;20016;-89
2023/03/24 03:27:52;;;;;;;;;;;;;;;;;;2038402;29;20075;-89
2023/03/24 03:28:59;;;;;;;24.05;16.15;;;;;;;;;;2030194;29;19931;-89
2023/03/24 03:30:07;;;;;;;26.63;20.75;;;;;;;;;;2031380;29;20039;-89
2023/03/24 03:31:15;;;;;;;25.92;17.40;;;;;;;;;;2031312;29;20419;-91
2023/03/24 03:32:27;;;;;;;26.15;17.77;;;;;;;;;;2038983;29;20031;-91
2023/03/24 03:33:39;;;;;;;26.17;18.40;;;;;;;;;;2038238;29;20103;-90
2023/03/24 03:34:46;;;;;;;24.98;18.58;;;;;;;;;;2039602;29;20023;-90
2023/03/24 03:36:25;;;;;;;28.52;19.13;;;;;;;;;;2046119;29;20474;-89
2023/03/24 03:37:40;;;;;;;31.65;17.13;;;;;;;;;;2044314;29;20043;-89
2023/03/24 03:39:00;;;;;;;24.00;16.92;;;;;;;;;;2039027;29;20057;-89
2023/03/24 03:40:08;;;;;;;25.67;16.90;;;;;;;;;;2043734;29;20086;-89
2023/03/24 03:41:10;;;;;;;30.10;18.38;;;;;;;;;;2038062;29;20032;-90
2023/03/24 03:42:10;;;;;;;28.45;18.50;;;;;;;;;;2036064;29;20076;-89
2023/03/24 03:43:11;;;;;;;;;;;;;;;;;;2038646;29;20034;-89
2023/03/24 03:44:11;;;;;;;26.20;16.23;;;;;;;;;;2031925;29;20448;-90
2023/03/24 03:45:13;;;;;;;23.02;17.33;;;;;;;;;;2048336;29;20159;-90
2023/03/24 03:46:15;;;;;;;29.92;20.27;;;;;;;;;;2056810;28;20107;-90
2023/03/24 03:47:17;;;;;;;29.83;17.98;;;;;;;;;;2045491;29;20075;-89
2023/03/24 03:48:18;;;;;;;26.85;18.25;;;;;;;;;;2039770;29;20040;-89
2023/03/24 03:49:19;;;;;;;;;;;;;;;;;;2039603;29;20144;-91
2023/03/24 03:50:20;;;;;;;28.70;16.20;;;;;;;;;;2038405;29;19923;-90
2023/03/24 03:51:21;;;;;;;24.35;16.92;;;;;;;;;;2040235;29;20307;-88
2023/03/24 03:52:21;;;;;;;;;;;;;;;;;;2043090;29;20056;-91
2023/03/24 03:53:27;;;;;;;22.73;14.97;;;;;;;;;;2047273;29;20282;-91
2023/03/24 03:54:29;;;;;;;24.33;15.75;;;;;;;;;;2040498;29;20091;-91
2023/03/24 03:55:31;;;;;;;30.33;19.23;;;;;;;;;;2032796;29;20028;-90
2023/03/24 03:56:34;;;;;;;31.15;19.80;;;;;;;;;;2038960;29;20037;-90
2023/03/24 03:57:35;;;;;;;36.45;22.98;;;;;;;;;;2040867;29;20028;-94
2023/03/24 03:58:36;;;;;;;41.08;26.42;;;;;;;;;;2040957;29;20088;-95
2023/03/24 03:59:37;;;;;;;;;;;;;;;;;;2041758;29;20073;-96
2023/03/24 04:00:38;;;;;;;36.65;21.98;;;;;;;;;;2033272;29;19911;-95
2023/03/24 04:01:40;;;;;;;31.98;21.60;;;;;;;;;;2032713;29;20086;-94
2023/03/24 04:02:58;;;;;;;33.55;22.27;;;;;;;;;;2033107;29;20127;-93
2023/03/24 04:04:13;;;;;;;35.33;21.13;;;;;;;;;;2040988;28;20028;-94
2023/03/24 04:05:28;;;;;;;34.13;21.02;;;;;;;;;;2044075;28;20069;-94
2023/03/24 04:06:47;;;;;;;30.23;19.63;;;;;;;;;;2050438;28;20028;-94
2023/03/24 04:08:08;;;;;;;30.92;20.58;;;;;;;;;;2047395;29;20035;-93
2023/03/24 04:09:27;;;;;;;30.02;18.70;;;;;;;;;;2047314;29;20042;-95
2023/03/24 04:10:44;;;;;;;29.40;18.90;;;;;;;;;;1697252;29;10247008;-96
2023/03/24 04:11:57;;;;;;;28.35;17.38;;;;;;;;;;2038262;29;20036;-95
2023/03/24 04:13:07;;;;;;;30.05;18.38;;;;;;;;;;2037885;29;20035;-96
2023/03/24 04:14:31;;;;;;;27.67;18.17;;;;;;;;;;2036740;29;20528;-96
2023/03/24 04:15:53;;;;;;;22.67;13.85;;;;;;;;;;2034615;29;20090;-91
2023/03/24 04:17:24;;;;;;;19.75;11.90;;;;;;;;;;2042195;29;20031;-90
2023/03/24 04:18:46;;;;;;;27.08;13.30;;;;;;;;;;2047035;29;20392;-90
2023/03/24 04:20:04;;;;;;;19.02;12.43;;;;;;;;;;2039190;29;20059;-90
2023/03/24 04:21:27;;;;;;;18.83;11.88;;;;;;;;;;2041939;29;20101;-91
2023/03/24 04:22:53;;;;;;;19.70;13.65;;;;;;;;;;2048131;29;20051;-90
2023/03/24 04:24:18;;;;;;;20.35;13.88;;;;;;;;;;2039206;29;20099;-89
2023/03/24 04:25:27;;;;;;;24.55;15.23;;;;;;;;;;2042905;29;20035;-90
2023/03/24 04:26:46;;;;;;;26.30;16.17;;;;;;;;;;2048100;29;20027;-89
2023/03/24 04:28:15;;;;;;;27.48;15.68;;;;;;;;;;2048058;29;20051;-89
2023/03/24 04:29:45;;;;;;;27.65;15.73;;;;;;;;;;2039622;29;20034;-90
2023/03/24 04:30:55;;;;;;;21.20;15.00;;;;;;;;;;2039295;29;20032;-90
2023/03/24 04:32:34;;;;;;;28.63;15.85;;;;;;;;;;2032766;29;20115;-90
2023/03/24 04:33:37;;;;;;;23.90;14.48;;;;;;;;;;2020305;29;20040;-90
2023/03/24 04:34:44;;;;;;;22.55;14.85;;;;;;;;;;2039170;29;20066;-90
2023/03/24 04:35:51;;;;;;;29.33;17.45;;;;;;;;;;2034632;29;20040;-90
2023/03/24 04:37:04;;;;;;;24.55;15.85;;;;;;;;;;2035741;29;20024;-89
2023/03/24 04:38:11;;;;;;;23.60;15.45;;;;;;;;;;2037460;29;20036;-87
2023/03/24 04:39:24;;;;;;;30.90;16.17;;;;;;;;;;2048792;29;20016;-88
2023/03/24 04:40:26;;;;;;;24.17;15.32;;;;;;;;;;2047674;29;20036;-89
2023/03/24 04:41:29;;;;;;;25.88;15.23;;;;;;;;;;2039800;29;20024;-88
2023/03/24 04:42:35;;;;;;;24.50;16.70;;;;;;;;;;2044140;29;20043;-88
2023/03/24 04:43:36;;;;;;;22.95;14.65;;;;;;;;;;2044052;29;20032;-89
2023/03/24 04:44:37;;;;;;;23.30;15.07;;;;;;;;;;2040529;29;20030;-89
2023/03/24 04:45:37;;;;;;;;;;;;;;;;;;2047318;29;20044;-90
2023/03/24 04:46:38;;;;;;;20.80;14.00;;;;;;;;;;2039648;29;20009;-89
2023/03/24 04:47:44;;;;;;;;;;;;;;;;;;2039639;29;20045;-89
2023/03/24 04:48:47;;;;;;;21.83;13.60;;;;;;;;;;2040272;29;19911;-90
2023/03/24 04:49:47;;;;;;;22.90;14.65;;;;;;;;;;2039770;29;20118;-91
2023/03/24 04:50:57;;;;;;;;;;;;;;;;;;2040069;29;20435;-90
2023/03/24 04:51:58;;;;;;;21.05;12.90;;;;;;;;;;2040724;29;19918;-91
2023/03/24 04:52:59;;;;;;;;;;;;;;;;;;2047951;29;20033;-91
2023/03/24 04:54:00;;;;;;;21.30;13.18;;;;;;;;;;2039989;29;19937;-90
2023/03/24 04:55:02;;;;;;;20.25;13.60;;;;;;;;;;2031600;29;20036;-90
2023/03/24 04:56:16;;;;;;;21.02;14.23;;;;;;;;;;2031536;29;20032;-89
2023/03/24 04:57:16;;;;;;;18.45;12.80;;;;;;;;;;2041408;29;20032;-90
2023/03/24 04:58:17;;;;;;;;;;;;;;;;;;2040232;29;20028;-90
2023/03/24 04:59:18;;;;;;;19.95;12.10;;;;;;;;;;2031108;29;19911;-90
2023/03/24 05:00:18;;;;;;;;;;;;;;;;;;2040636;29;20031;-90
2023/03/24 05:01:21;;;;;;;17.37;12.40;;;;;;;;;;2039038;29;19918;-90
2023/03/24 05:02:22;;;;;;;16.83;11.75;;;;;;;;;;2039846;29;20028;-90
2023/03/24 05:03:22;;;;;;;;;;;;;;;;;;2040379;29;20581;-90
2023/03/24 05:04:25;;;;;;;15.80;11.87;;;;;;;;;;2031364;29;20327;-90
2023/03/24 05:05:25;;;;;;;18.73;12.18;;;;;;;;;;2031222;29;20043;-90
2023/03/24 05:06:26;;;;;;;;;;;;;;;;;;2031435;29;20024;-90
2023/03/24 05:07:27;;;;;;;17.33;11.53;;;;;;;;;;2038992;29;20394;-90
2023/03/24 05:08:28;;;;;;;16.50;10.65;;;;;;;;;;2046969;29;20278;-89
2023/03/24 05:09:30;;;;;;;;;;;;;;;;;;2039476;29;20115;-88
2023/03/24 05:10:30;;;;;;;18.25;11.85;;;;;;;;;;2031423;29;19915;-91
2023/03/24 05:11:31;;;;;;;;;;;;;;;;;;2031560;29;20495;-88
2023/03/24 05:12:31;;;;;;;17.30;12.47;;;;;;;;;;2038713;29;19910;-89
2023/03/24 05:13:31;;;;;;;;;;;;;;;;;;2039472;29;20040;-89
2023/03/24 05:14:32;;;;;;;18.87;11.83;;;;;;;;;;2047385;29;19997;-89
2023/03/24 05:15:33;;;;;;;15.40;11.05;;;;;;;;;;2047765;29;20053;-91
2023/03/24 05:16:33;;;;;;;22.13;14.93;;;;;;;;;;2047600;29;20035;-89
2023/03/24 05:17:33;;;;;;;;;;;;;;;;;;2048092;29;20406;-90
2023/03/24 05:18:34;;;;;;;16.63;12.63;;;;;;;;;;2047415;29;19914;-90
2023/03/24 05:19:36;;;;;;;16.33;11.35;;;;;;;;;;2047557;28;20031;-89
2023/03/24 05:20:36;;;;;;;18.95;11.68;;;;;;;;;;2039012;29;20526;-91
2023/03/24 05:21:36;;;;;;;;;;;;;;;;;;2031667;29;20028;-89
2023/03/24 05:22:37;;;;;;;18.03;12.63;;;;;;;;;;2030978;29;19926;-90
2023/03/24 05:23:38;;;;;;;17.65;12.30;;;;;;;;;;2038938;29;20396;-90
2023/03/24 05:24:39;;;;;;;;;;;;;;;;;;2039327;29;20062;-89
2023/03/24 05:25:39;;;;;;;21.27;15.57;;;;;;;;;;2030870;29;19915;-90
2023/03/24 05:26:40;;;;;;;21.48;13.95;;;;;;;;;;2038862;29;20503;-90
2023/03/24 05:27:40;;;;;;;;;;;;;;;;;;2047801;29;20031;-89
2023/03/24 05:28:41;;;;;;;22.73;16.06;;;;;;;;;;1693805;29;10139463;-90
2023/03/24 05:29:41;;;;;;;;;;;;;;;;;;2031546;29;20028;-89
2023/03/24 05:30:41;;;;;;;26.97;18.70;;;;;;;;;;2038705;29;19921;-90
2023/03/24 05:31:43;;;;;;;;;;;;;;;;;;2039022;29;20079;-89
2023/03/24 05:32:44;;;;;;;23.65;16.85;;;;;;;;;;2038978;29;19942;-89
2023/03/24 05:33:44;;;;;;;;;;;;;;;;;;2047578;29;20418;-90
2023/03/24 05:34:45;;;;;;;23.15;16.92;;;;;;;;;;2038703;29;20057;-90
2023/03/24 05:35:45;;;;;;;;;;;;;;;;;;2031079;29;20622;-89
2023/03/24 05:36:45;;;;;;;24.35;16.08;;;;;;;;;;2038793;29;19942;-89
2023/03/24 05:37:46;;;;;;;22.85;15.90;;;;;;;;;;2044404;29;20027;-89
2023/03/24 05:38:46;;;;;;;25.30;16.33;;;;;;;;;;2048866;28;20108;-88
2023/03/24 05:39:47;;;;;;;23.38;15.55;;;;;;;;;;2031889;29;20100;-89
2023/03/24 05:40:47;;;;;;;26.23;16.17;;;;;;;;;;2038704;29;20055;-89
2023/03/24 05:41:48;;;;;;;23.73;17.23;;;;;;;;;;2047039;29;20031;-89
2023/03/24 05:42:49;;;;;;;;;;;;;;;;;;2047823;29;20027;-89
2023/03/24 05:43:49;;;;;;;29.98;18.10;;;;;;;;;;2047265;29;20417;-90
2023/03/24 05:44:50;;;;;;;29.35;20.08;;;;;;;;;;2047845;29;20039;-89
2023/03/24 05:45:50;;;;;;;26.10;17.40;;;;;;;;;;2038502;29;20649;-89
2023/03/24 05:46:51;;;;;;;27.35;17.90;;;;;;;;;;2038730;29;20137;-89
2023/03/24 05:47:51;;;;;;;;;;;;;;;;;;2039771;29;20036;-89
2023/03/24 05:48:51;;;;;;;28.58;18.98;;;;;;;;;;2030887;29;19911;-89
2023/03/24 05:49:53;;;;;;;;;;;;;;;;;;2031391;29;20106;-89
2023/03/24 05:50:53;;;;;;;28.55;16.75;;;;;;;;;;2038962;29;19994;-89
2023/03/24 05:51:54;;;;;;;27.52;17.60;;;;;;;;;;2038385;29;20042;-89
2023/03/24 05:52:55;;;;;;;26.73;16.77;;;;;;;;;;2038572;29;20023;-89
2023/03/24 05:53:55;;;;;;;;;;;;;;;;;;2047504;29;20038;-89
2023/03/24 05:54:57;;;;;;;25.13;18.10;;;;;;;;;;2047324;29;20324;-89
2023/03/24 05:55:57;;;;;;;26.38;16.92;;;;;;;;;;2047156;29;20046;-88
2023/03/24 05:56:57;;;;;;;;;;;;;;;;;;2038939;29;20071;-89
2023/03/24 05:58:00;;;;;;;23.80;17.57;;;;;;;;;;2031091;29;19915;-89
2023/03/24 05:59:03;;;;;;;27.42;16.83;;;;;;;;;;2038793;29;20032;-89
2023/03/24 06:00:15;;;;;;;28.08;17.08;;;;;;;;;;2046277;28;20031;-88
2023/03/24 06:01:17;;;;;;;27.38;17.25;;;;;;;;;;2038306;29;20028;-90
2023/03/24 06:02:43;;;;;;;27.83;17.65;;;;;;;;;;2038402;29;20659;-91
2023/03/24 06:03:49;;;;;;;28.42;18.83;;;;;;;;;;2046796;29;20422;-90
2023/03/24 06:05:02;;;;;;;29.48;18.08;;;;;;;;;;2047899;29;20027;-89
2023/03/24 06:06:07;;;;;;;28.58;18.38;;;;;;;;;;2049780;28;20063;-89
2023/03/24 06:07:08;;;;;;;26.17;17.38;;;;;;;;;;2047378;28;20035;-90
2023/03/24 06:08:27;;;;;;;;;;;;;;;;;;2048759;29;20031;-91
2023/03/24 06:09:41;;;;;;;30.05;18.49;;;;;;;;;;2008866;29;10002007;-89
2023/03/24 06:10:41;;;;;;;23.95;16.75;;;;;;;;;;2047316;29;20248;-88
2023/03/24 06:11:42;;;;;;;;;;;;;;;;;;2048260;29;20034;-90
2023/03/24 06:12:45;;;;;;;23.23;16.02;;;;;;;;;;2039014;29;19945;-88
2023/03/24 06:13:45;;;;;;;26.83;17.10;;;;;;;;;;2038939;29;20036;-89
2023/03/24 06:14:46;;;;;;;;;;;;;;;;;;2047469;29;20463;-89
2023/03/24 06:15:46;;;;;;;23.13;16.67;;;;;;;;;;2046665;29;20461;-89
2023/03/24 06:16:48;;;;;;;23.17;16.45;;;;;;;;;;2046100;29;20042;-89
2023/03/24 06:17:53;;;;;;;24.92;15.35;;;;;;;;;;2046399;29;20482;-88
2023/03/24 06:18:54;;;;;;;25.20;16.48;;;;;;;;;;2046852;29;20090;-88
2023/03/24 06:20:01;;;;;;;;;;;;;;;;;;2038539;29;20055;-90
2023/03/24 06:21:02;;;;;;;25.02;16.05;;;;;;;;;;2039072;29;20306;-89
2023/03/24 06:22:02;;;;;;;28.02;17.08;;;;;;;;;;2046987;29;20110;-89
2023/03/24 06:23:03;;;;;;;;;;;;;;;;;;2038750;29;20178;-87
2023/03/24 06:24:04;;;;;;;26.50;16.98;;;;;;;;;;2038315;29;19914;-89
2023/03/24 06:25:05;;;;;;;27.05;16.65;;;;;;;;;;2038329;29;20035;-89
2023/03/24 06:26:23;;;;;;;29.33;17.10;;;;;;;;;;2031658;29;20739;-89
2023/03/24 06:27:28;;;;;;;26.25;17.77;;;;;;;;;;2038238;29;20059;-90
2023/03/24 06:28:33;;;;;;;29.48;17.40;;;;;;;;;;2039105;29;20030;-90
2023/03/24 06:29:35;;;;;;;27.80;17.02;;;;;;;;;;2038243;29;20027;-90
2023/03/24 06:30:36;;;;;;;31.88;18.33;;;;;;;;;;2041997;29;20098;-89
2023/03/24 06:31:36;;;;;;;24.42;16.40;;;;;;;;;;2053910;28;20038;-87
2023/03/24 06:32:37;;;;;;;24.40;16.35;;;;;;;;;;2050709;29;20027;-89
2023/03/24 06:33:37;;;;;;;23.23;16.20;;;;;;;;;;2038457;29;20358;-89